This is the latest recevied weather packets stored in our database for station/object OK2CME-6. If no packets are shown the sender has not sent any weather packets the latest 10 day(s).
| Time | Temp. | Humidity | Pressure | Rain* | Wind** | Luminosity | Snow |
|---|---|---|---|---|---|---|---|
| 1778331349 | 13.33° C | 62% | 1022.4 hPa | 0 mm | - | 253 W/m² | - |
| 1778330149 | 13.33° C | 63% | 1022.6 hPa | 0 mm | - | 325 W/m² | - |
| 1778328949 | 13.33° C | 64% | 1022.9 hPa | 0 mm | - | 257 W/m² | - |
| 1778327749 | 13.33° C | 64% | 1022.6 hPa | 0 mm | - | 381 W/m² | - |
| 1778326549 | 13.33° C | 63% | 1022.7 hPa | 0 mm | - | 294 W/m² | - |
| 1778325349 | 12.78° C | 63% | 1022.6 hPa | 0 mm | - | 155 W/m² | - |
| 1778324149 | 13.33° C | 60% | 1022.7 hPa | 0 mm | - | 336 W/m² | - |
| 1778322949 | 13.33° C | 61% | 1022.8 hPa | 0 mm | - | 218 W/m² | - |
| 1778321749 | 12.78° C | 65% | 1022.8 hPa | 0 mm | - | 227 W/m² | - |
| 1778320549 | 12.78° C | 64% | 1022.8 hPa | 0 mm | - | 235 W/m² | - |
| 1778319349 | 13.33° C | 62% | 1022.8 hPa | 0 mm | - | 830 W/m² | - |
| 1778318149 | 12.22° C | 66% | 1022.9 hPa | 0 mm | - | 203 W/m² | - |
| 1778316949 | 12.78° C | 64% | 1022.8 hPa | 0 mm | - | 162 W/m² | - |
| 1778315749 | 11.67° C | 68% | 1023.1 hPa | 0 mm | - | 651 W/m² | - |
| 1778314549 | 10.56° C | 73% | 1023 hPa | 0 mm | - | 522 W/m² | - |
| 1778313349 | 11.11° C | 73% | 1022.9 hPa | 0 mm | - | 362 W/m² | - |
| 1778312149 | 10.56° C | 74% | 1022.7 hPa | 0 mm | - | 416 W/m² | - |
| 1778310949 | 10.56° C | 74% | 1022.9 hPa | 0 mm | - | 347 W/m² | - |
| 1778309749 | 10.56° C | 75% | 1022.5 hPa | 0 mm | - | 305 W/m² | - |
| 1778308549 | 9.44° C | 81% | 1022.5 hPa | 0 mm | - | 251 W/m² | - |
| 1778307349 | 8.89° C | 84% | 1022.3 hPa | 0 mm | - | 209 W/m² | - |
| 1778306149 | 8.33° C | 86% | 1022.1 hPa | 0 mm | - | 167 W/m² | - |
| 1778304949 | 8.33° C | 87% | 1022.2 hPa | 0 mm | - | 122 W/m² | - |
| 1778303749 | 7.22° C | 90% | 1021.9 hPa | 0 mm | - | 66 W/m² | - |
| 1778302549 | 6.11° C | 94% | 1022.2 hPa | 0 mm | - | 42 W/m² | - |
* Rain latest hour (hover to see other rain measurements)
** Current wind speed in m/s (hover to see current wind gust speed)